Ionic Kleos — V7DX4 — position and weather

sailwx.info

Track history (hours):
 
Tides and Currents Weather Stations Pressure Air Temp Water Temp Dewpoint Dewpoint Depression Visibility Wind Speed Wind Dir Waves Ship Positions

Ionic Kleos

Last reported at 2017-Oct-14 19:48 UTC. Time now 2017-Oct-23 02:39 UTC.
Position N 37°14' W 027°14'.
Warning: this ship's position is 8 days out of date.

Length 229 m; draft 6.8 m.

Type: Cargo ship. MMSI: 538005444.

Date/timePositionNaut miles runAvg speedWind from/ knotsBaromVisibWave heightAir tempDewpointWater temp
2017-Oct-14 19:48N 37°14' W 027°14'411.9
2017-Oct-14 19:30N 37°15' W 027°09'611.2
2017-Oct-14 19:00N 37°17' W 027°03'510.8
2017-Oct-14 18:30N 37°18' W 026°56'510.2
2017-Oct-14 18:00N 37°20' W 026°50'5 9.6
2017-Oct-14 17:30N 37°21' W 026°44'510.8
2017-Oct-14 17:00N 37°22' W 026°38'510.9
2017-Oct-14 16:30N 37°23' W 026°31'611.6
2017-Oct-14 16:00N 37°24' W 026°23'510.2
2017-Oct-14 15:30N 37°24' W 026°17'510.0
2017-Oct-14 15:00N 37°24' W 026°11'510.0
2017-Oct-14 14:30N 37°24' W 026°05'510.2
2017-Oct-14 14:00N 37°25' W 025°58'5 9.3
2017-Oct-14 13:31N 37°27' W 025°53'5 9.5
2017-Oct-14 13:00N 37°29' W 025°47'510.6
2017-Oct-14 12:30N 37°31' W 025°41'510.5
2017-Oct-14 12:01N 37°31' W 025°34'611.2
2017-Oct-14 11:30N 37°30' W 025°27'611.7
2017-Oct-14 11:01N 37°29' W 025°20'611.6
2017-Oct-14 10:30N 37°29' W 025°13'611.5
2017-Oct-14 10:00N 37°30' W 025°06'612.1
2017-Oct-14 09:30N 37°30' W 024°58'611.5
2017-Oct-14 09:00N 37°31' W 024°51'611.3
2017-Oct-14 08:30N 37°31' W 024°44'611.1
2017-Oct-14 08:00N 37°32' W 024°37'611.2
2017-Oct-14 07:30N 37°32' W 024°30'611.7
2017-Oct-14 07:00N 37°33' W 024°22'612.0
2017-Oct-14 06:30N 37°33' W 024°15'611.8
2017-Oct-14 06:00N 37°34' W 024°07'611.6
2017-Oct-14 05:30N 37°35' W 024°00'612.0
2017-Oct-14 05:00N 37°35' W 023°53'612.1
2017-Oct-14 04:30N 37°36' W 023°45'612.0
2017-Oct-14 04:00N 37°36' W 023°38'912.3
2017-Oct-14 03:18N 37°37' W 023°27'1612.5
2017-Oct-14 01:59N 37°38' W 023°06'55112.4
2017-Oct-12 05:38N 38°30' W 011°29'713.5
2017-Oct-12 05:07N 38°31' W 011°21'213.4
2017-Oct-12 05:00N 38°31' W 011°19'713.7
2017-Oct-12 04:30N 38°31' W 011°10'714.0
2017-Oct-12 04:00N 38°31' W 011°01'714.2
2017-Oct-12 03:30N 38°31' W 010°52'714.6
2017-Oct-12 03:00N 38°32' W 010°43'714.7
2017-Oct-12 02:30N 38°32' W 010°33'714.6
2017-Oct-12 02:00N 38°33' W 010°24'714.0
2017-Oct-12 01:30N 38°33' W 010°15'714.1
2017-Oct-12 01:00N 38°34' W 010°06'714.3
2017-Oct-12 00:30N 38°34' W 009°57'714.1
2017-Oct-12 00:00N 38°35' W 009°48'714.5
2017-Oct-11 23:30N 38°35' W 009°39'713.3
2017-Oct-11 23:00N 38°36' W 009°30'5 9.7
2017-Oct-11 22:30N 38°36' W 009°24'4 8.3
2017-Oct-11 22:00N 38°39' W 009°20'510.5
2017-Oct-11 21:30N 38°41' W 009°14'0 0.3
2017-Oct-11 21:00N 38°41' W 009°14'0 0.0
2017-Oct-11 20:09N 38°41' W 009°14'0 0.0
2017-Oct-11 19:48N 38°41' W 009°14'0 0.0
2017-Oct-11 19:30N 38°41' W 009°14'0 0.0
2017-Oct-11 18:59N 38°41' W 009°14'0 0.0
2017-Oct-11 18:27N 38°41' W 009°14'0 0.0
2017-Oct-11 17:56N 38°41' W 009°14'0 0.0
2017-Oct-11 17:30N 38°41' W 009°14'0 0.0
2017-Oct-11 16:54N 38°41' W 009°14'0 0.0
2017-Oct-10 23:56N 38°41' W 009°14'0 0.0
2017-Oct-10 23:29N 38°41' W 009°14'0 0.0
2017-Oct-10 22:53N 38°41' W 009°14'0 0.0
2017-Oct-10 22:29N 38°41' W 009°14'0 0.0
2017-Oct-10 21:59N 38°41' W 009°14'0 0.0
2017-Oct-10 21:29N 38°41' W 009°14'0 0.0
2017-Oct-10 20:59N 38°41' W 009°14'0 0.0
2017-Oct-10 20:29N 38°41' W 009°14'0 0.0
2017-Oct-10 19:59N 38°41' W 009°14'0 0.0
2017-Oct-10 19:29N 38°41' W 009°14'0 0.0
2017-Oct-10 18:59N 38°41' W 009°14'0 0.0
2017-Oct-10 18:20N 38°41' W 009°14'0 0.0
2017-Oct-10 17:59N 38°41' W 009°14'0 0.0
2017-Oct-10 17:27N 38°41' W 009°14'0 0.0
2017-Oct-10 16:59N 38°41' W 009°14'0 0.0
2017-Oct-10 15:32N 38°41' W 009°14'0 0.0
2017-Oct-10 15:20N 38°41' W 009°14'0 0.0
2017-Oct-10 14:59N 38°41' W 009°14'0 0.0
2017-Oct-10 13:59N 38°41' W 009°14'0 0.0
2017-Oct-10 13:11N 38°41' W 009°14'0 0.0
2017-Oct-10 12:53N 38°41' W 009°14'0 0.0
2017-Oct-10 12:20N 38°41' W 009°14'0 0.0
2017-Oct-10 11:59N 38°41' W 009°14'0 0.0
2017-Oct-10 11:20N 38°41' W 009°14'0 0.0
2017-Oct-10 10:59N 38°41' W 009°14'0 0.0
2017-Oct-10 10:26N 38°41' W 009°14'0 0.0
2017-Oct-10 09:59N 38°41' W 009°14'0 0.0
2017-Oct-10 09:23N 38°41' W 009°14'0 0.0
2017-Oct-10 08:59N 38°41' W 009°14'0 0.0
2017-Oct-10 08:23N 38°41' W 009°14'0 0.0
2017-Oct-10 07:59N 38°41' W 009°14'0 0.0
2017-Oct-10 07:29N 38°41' W 009°14'0 0.0
2017-Oct-10 06:53N 38°41' W 009°14'0 0.0
2017-Oct-10 06:29N 38°41' W 009°14'0 0.0
2017-Oct-10 05:59N 38°41' W 009°14'0 0.0
2017-Oct-10 05:29N 38°41' W 009°14'0 0.0
2017-Oct-10 04:59N 38°41' W 009°14'0 0.0
2017-Oct-10 04:23N 38°41' W 009°14'0 0.0
2017-Oct-10 03:59N 38°41' W 009°14'0 0.0
2017-Oct-10 03:29N 38°41' W 009°14'0 0.0
2017-Oct-10 02:59N 38°41' W 009°14'0 0.0
2017-Oct-10 02:29N 38°41' W 009°14'0 0.0
2017-Oct-10 01:53N 38°41' W 009°14'0 0.0
2017-Oct-10 01:29N 38°41' W 009°14'0 0.0
2017-Oct-10 00:59N 38°41' W 009°14'0 0.0
2017-Oct-10 00:29N 38°41' W 009°14'0 0.0
2017-Oct-09 23:59N 38°41' W 009°14'0 0.0
2017-Oct-09 23:29N 38°41' W 009°14'0 0.0
2017-Oct-09 22:59N 38°41' W 009°14'0 0.0
2017-Oct-09 22:29N 38°41' W 009°14'0 0.0
2017-Oct-09 21:53N 38°41' W 009°14'0 0.0
2017-Oct-09 21:29N 38°41' W 009°14'0 0.0
2017-Oct-09 20:59N 38°41' W 009°14'0 0.0
2017-Oct-09 20:29N 38°41' W 009°14'0 0.0
2017-Oct-09 19:59N 38°41' W 009°14'0 0.0
2017-Oct-09 19:29N 38°41' W 009°14'0 0.0
2017-Oct-09 18:59N 38°41' W 009°14'0 0.0
2017-Oct-09 18:29N 38°41' W 009°14'0 0.0
2017-Oct-09 17:59N 38°41' W 009°14'0 0.0
2017-Oct-09 17:29N 38°41' W 009°14'0 0.0
2017-Oct-09 16:59N 38°41' W 009°14'0 0.0
2017-Oct-09 16:29N 38°41' W 009°14'0 0.0
2017-Oct-09 15:56N 38°41' W 009°14'0 0.0
2017-Oct-09 15:29N 38°41' W 009°14'0 0.0
2017-Oct-09 14:59N 38°41' W 009°14'0 0.0
2017-Oct-09 14:29N 38°41' W 009°14'0 0.0
2017-Oct-09 13:59N 38°41' W 009°14'0 0.0
2017-Oct-09 13:29N 38°41' W 009°14'0 0.0
2017-Oct-09 12:59N 38°41' W 009°14'0 0.0
2017-Oct-09 12:29N 38°41' W 009°14'0 0.0
2017-Oct-09 11:59N 38°41' W 009°14'0 0.0
2017-Oct-09 11:29N 38°41' W 009°14'0 0.0
2017-Oct-09 10:59N 38°41' W 009°14'0 0.0
2017-Oct-09 10:29N 38°41' W 009°14'0 0.0
2017-Oct-09 09:50N 38°41' W 009°14'0 0.0
2017-Oct-09 09:29N 38°41' W 009°14'0 0.0
2017-Oct-09 08:56N 38°41' W 009°14'0 0.0
2017-Oct-09 08:29N 38°41' W 009°14'0 0.0
2017-Oct-09 07:59N 38°41' W 009°14'0 0.0
2017-Oct-09 07:29N 38°41' W 009°14'0 0.0
2017-Oct-09 06:59N 38°41' W 009°14'0 0.0
2017-Oct-09 06:29N 38°41' W 009°14'0 0.0
2017-Oct-09 05:59N 38°41' W 009°14'0 0.0
2017-Oct-09 05:26N 38°41' W 009°14'0 0.0
2017-Oct-09 04:59N 38°41' W 009°14'0 0.0
2017-Oct-09 04:29N 38°41' W 009°14'0 0.0
2017-Oct-09 03:59N 38°41' W 009°14'0 0.0
2017-Oct-09 03:29N 38°41' W 009°14'0 0.0
2017-Oct-09 02:59N 38°41' W 009°14'0 0.0
2017-Oct-09 02:29N 38°41' W 009°14'0 0.0
2017-Oct-09 01:59N 38°41' W 009°14'0 0.0
2017-Oct-09 01:29N 38°41' W 009°14'0 0.0
2017-Oct-09 00:59N 38°41' W 009°14'0 0.0
2017-Oct-09 00:29N 38°41' W 009°14'0 0.0
2017-Oct-08 23:59N 38°41' W 009°14'0 0.0
2017-Oct-08 23:29N 38°41' W 009°14'0 0.0
2017-Oct-08 22:59N 38°41' W 009°14'0 0.0
2017-Oct-08 22:29N 38°41' W 009°14'0 0.0
2017-Oct-08 21:59N 38°41' W 009°14'0 0.0
2017-Oct-08 21:29N 38°41' W 009°14'0 0.0
2017-Oct-08 20:59N 38°41' W 009°14'0 0.0
2017-Oct-08 20:29N 38°41' W 009°14'0 0.0
2017-Oct-08 19:59N 38°41' W 009°14'0 0.0
2017-Oct-08 19:29N 38°41' W 009°14'0 0.0
2017-Oct-08 18:59N 38°41' W 009°14'0 0.0
2017-Oct-08 18:17N 38°41' W 009°14'0 0.0
2017-Oct-08 17:59N 38°41' W 009°14'0 0.0
2017-Oct-08 17:29N 38°41' W 009°14'0 0.0
2017-Oct-08 16:59N 38°41' W 009°14'0 0.0
2017-Oct-08 16:30N 38°41' W 009°14'0 0.0
2017-Oct-08 15:59N 38°41' W 009°14'0 0.0
2017-Oct-08 15:29N 38°41' W 009°14'0 0.0
2017-Oct-08 14:59N 38°41' W 009°14'0 0.0
2017-Oct-08 14:29N 38°41' W 009°14'0 0.0
2017-Oct-08 13:59N 38°41' W 009°14'0 0.0
2017-Oct-08 13:23N 38°41' W 009°14'0 0.0
2017-Oct-08 12:59N 38°41' W 009°14'0 0.0
2017-Oct-08 12:29N 38°41' W 009°14'0 0.0
2017-Oct-08 11:59N 38°41' W 009°14'0 0.0
2017-Oct-08 11:29N 38°41' W 009°14'0 0.0
2017-Oct-08 10:59N 38°41' W 009°14'0 0.0
2017-Oct-08 10:26N 38°41' W 009°14'0 0.0
2017-Oct-08 09:59N 38°41' W 009°14'0 0.0
2017-Oct-08 09:29N 38°41' W 009°14'0 0.0
2017-Oct-08 08:59N 38°41' W 009°14'0 0.0
2017-Oct-08 08:23N 38°41' W 009°14'0 0.0
2017-Oct-08 07:56N 38°41' W 009°14'0 0.0
2017-Oct-08 07:29N 38°41' W 009°14'0 0.0
2017-Oct-08 06:56N 38°41' W 009°14'0 0.0
2017-Oct-08 06:29N 38°41' W 009°14'0 0.0
2017-Oct-08 05:53N 38°41' W 009°14'0 0.0
2017-Oct-08 05:29N 38°41' W 009°14'0 0.0
2017-Oct-08 04:53N 38°41' W 009°14'0 0.0
2017-Oct-08 04:29N 38°41' W 009°14'0 0.0
2017-Oct-08 03:59N 38°41' W 009°14'0 0.0
2017-Oct-08 03:29N 38°41' W 009°14'0 0.0
2017-Oct-08 02:59N 38°41' W 009°14'0 0.0
2017-Oct-08 02:29N 38°41' W 009°14'0 0.0
2017-Oct-08 01:59N 38°41' W 009°14'0 0.0
2017-Oct-08 01:23N 38°41' W 009°14'0 0.0
2017-Oct-08 00:59N 38°41' W 009°14'0 0.0
2017-Oct-08 00:29N 38°41' W 009°14'0 0.0
2017-Oct-07 23:53N 38°41' W 009°14'0 0.0
2017-Oct-07 23:29N 38°41' W 009°14'0 0.0
2017-Oct-07 22:59N 38°41' W 009°14'0 0.0
2017-Oct-07 22:17N 38°41' W 009°14'0 0.0
2017-Oct-07 21:56N 38°41' W 009°14'0 0.0
2017-Oct-07 21:29N 38°41' W 009°14'0 0.0
2017-Oct-07 20:59N 38°41' W 009°14'0 0.0
2017-Oct-07 20:29N 38°41' W 009°14'0 0.0
2017-Oct-07 19:56N 38°41' W 009°14'0 0.0
2017-Oct-07 19:17N 38°41' W 009°14'0 0.0
2017-Oct-07 18:53N 38°41' W 009°14'0 0.0
2017-Oct-07 18:29N 38°41' W 009°14'0 0.0
2017-Oct-07 17:59N 38°41' W 009°14'0 0.0
2017-Oct-07 17:23N 38°41' W 009°14'0 0.0
2017-Oct-07 16:59N 38°41' W 009°14'0 0.0
2017-Oct-07 16:29N 38°41' W 009°14'0 0.0
2017-Oct-07 15:53N 38°41' W 009°14'0 0.0
2017-Oct-07 14:38N 38°41' W 009°14'0 0.0
2017-Oct-07 14:29N 38°41' W 009°14'0 0.0
2017-Oct-07 13:59N 38°41' W 009°14'0 0.0
2017-Oct-07 13:29N 38°41' W 009°14'0 0.0
2017-Oct-07 12:59N 38°41' W 009°14'0 0.0
2017-Oct-07 12:29N 38°41' W 009°14'0 0.0
2017-Oct-07 11:59N 38°41' W 009°14'0 0.0
2017-Oct-07 11:17N 38°41' W 009°14'0 0.0
2017-Oct-07 10:59N 38°41' W 009°14'0 0.0
2017-Oct-07 10:29N 38°41' W 009°14'0 0.0
2017-Oct-07 09:59N 38°41' W 009°14'0 0.0
2017-Oct-07 09:23N 38°41' W 009°14'0 0.0
2017-Oct-07 08:59N 38°41' W 009°14'0 0.0
2017-Oct-07 08:29N 38°41' W 009°14'0 0.0
2017-Oct-07 07:59N 38°41' W 009°14'0 0.0
2017-Oct-07 07:29N 38°41' W 009°14'0 0.0
2017-Oct-07 06:59N 38°41' W 009°14'0 0.0
2017-Oct-07 06:26N 38°41' W 009°14'0 0.0
2017-Oct-07 05:59N 38°41' W 009°14'0 0.0
2017-Oct-07 05:29N 38°41' W 009°14'0 0.0
2017-Oct-07 04:59N 38°41' W 009°14'0 0.0
2017-Oct-07 04:23N 38°41' W 009°14'0 0.0
2017-Oct-07 03:59N 38°41' W 009°14'0 0.0
2017-Oct-07 03:29N 38°41' W 009°14'0 0.0
2017-Oct-07 02:59N 38°41' W 009°14'0 0.0
2017-Oct-07 02:29N 38°41' W 009°14'0 0.0
2017-Oct-07 01:53N 38°41' W 009°14'0 0.0
2017-Oct-07 01:26N 38°41' W 009°14'0 0.0
2017-Oct-07 00:59N 38°41' W 009°14'0 0.0
2017-Oct-07 00:11N 38°41' W 009°14'0 0.0
2017-Oct-06 23:59N 38°41' W 009°14'0 0.0
2017-Oct-06 23:23N 38°41' W 009°14'0 0.0
2017-Oct-06 22:59N 38°41' W 009°14'0 0.0
2017-Oct-06 22:29N 38°41' W 009°14'0 0.0
2017-Oct-06 21:59N 38°41' W 009°14'0 0.0
2017-Oct-06 21:29N 38°41' W 009°14'0 0.0
2017-Oct-06 20:59N 38°41' W 009°14'0 0.0
2017-Oct-06 20:29N 38°41' W 009°14'0 0.0
2017-Oct-06 19:59N 38°41' W 009°14'0 0.0
2017-Oct-06 19:29N 38°41' W 009°14'0 0.0
2017-Oct-06 18:59N 38°41' W 009°14'0 0.0
2017-Oct-06 18:29N 38°41' W 009°14'0 0.0
2017-Oct-06 17:59N 38°41' W 009°14'0 0.0
2017-Oct-06 17:29N 38°41' W 009°14'0 0.0
2017-Oct-06 16:56N 38°41' W 009°14'0 0.0
2017-Oct-06 16:26N 38°41' W 009°14'0 0.0
2017-Oct-06 15:59N 38°41' W 009°14'0 0.0
2017-Oct-06 15:29N 38°41' W 009°14'0 0.0
2017-Oct-06 14:50N 38°41' W 009°14'0 0.0
2017-Oct-06 14:29N 38°41' W 009°14'0 0.0
2017-Oct-06 13:59N 38°41' W 009°14'0 0.0
2017-Oct-06 13:29N 38°41' W 009°14'0 0.0
2017-Oct-06 12:59N 38°41' W 009°14'0 0.0
2017-Oct-06 12:29N 38°41' W 009°14'0 0.0
2017-Oct-06 11:53N 38°41' W 009°14'0 0.0
2017-Oct-06 11:29N 38°41' W 009°14'0 0.0
2017-Oct-06 10:59N 38°41' W 009°14'0 0.0
2017-Oct-06 10:29N 38°41' W 009°14'0 0.0
2017-Oct-06 09:56N 38°41' W 009°14'0 0.0
2017-Oct-06 09:29N 38°41' W 009°14'0 0.0
2017-Oct-06 08:59N 38°41' W 009°14'0 0.0
2017-Oct-06 08:29N 38°41' W 009°14'0 0.0
2017-Oct-06 07:59N 38°41' W 009°14'0 0.0
2017-Oct-06 07:29N 38°41' W 009°14'0 0.0
2017-Oct-06 06:59N 38°41' W 009°14'0 0.0
2017-Oct-06 06:29N 38°41' W 009°14'0 0.0
2017-Oct-06 05:59N 38°41' W 009°14'0 0.0
2017-Oct-06 05:26N 38°41' W 009°14'0 0.0
2017-Oct-06 04:59N 38°41' W 009°14'0 0.0
2017-Oct-06 04:29N 38°41' W 009°14'0 0.0
2017-Oct-06 03:59N 38°41' W 009°14'0 0.0
2017-Oct-06 03:29N 38°41' W 009°14'0 0.0
2017-Oct-06 02:59N 38°41' W 009°14'0 0.0
2017-Oct-06 02:29N 38°41' W 009°14'0 0.0
2017-Oct-06 01:59N 38°41' W 009°14'0 0.0
2017-Oct-06 01:29N 38°41' W 009°14'0 0.0
2017-Oct-06 00:59N 38°41' W 009°14'0 0.0
2017-Oct-06 00:29N 38°41' W 009°14'0 0.0
2017-Oct-05 23:59N 38°41' W 009°14'0 0.0
2017-Oct-05 23:29N 38°41' W 009°14'0 0.0
2017-Oct-05 22:59N 38°41' W 009°14'0 0.0
2017-Oct-05 22:26N 38°41' W 009°14'0 0.0
2017-Oct-05 21:59N 38°41' W 009°14'0 0.0
2017-Oct-05 21:29N 38°41' W 009°14'0 0.0
2017-Oct-05 20:59N 38°41' W 009°14'0 0.0
2017-Oct-05 20:29N 38°41' W 009°14'0 0.0
2017-Oct-05 19:53N 38°41' W 009°14'0 0.0
2017-Oct-05 19:29N 38°41' W 009°14'0 0.0
2017-Oct-05 18:59N 38°41' W 009°14'0 0.0
2017-Oct-05 18:29N 38°41' W 009°14'0 0.0
2017-Oct-05 17:53N 38°41' W 009°14'0 0.0
2017-Oct-05 17:29N 38°41' W 009°14'0 0.0
2017-Oct-05 16:59N 38°41' W 009°14'0 0.0
2017-Oct-05 15:29N 38°41' W 009°14'0 0.0
2017-Oct-05 14:59N 38°41' W 009°14'0 0.0
2017-Oct-05 14:29N 38°41' W 009°14'0 0.0
2017-Oct-05 13:59N 38°41' W 009°14'0 0.0
2017-Oct-05 13:29N 38°41' W 009°14'0 0.0
2017-Oct-05 12:53N 38°41' W 009°14'0 0.0
2017-Oct-05 12:29N 38°41' W 009°14'0 0.0
2017-Oct-05 11:59N 38°41' W 009°14'0 0.0
2017-Oct-05 11:29N 38°41' W 009°14'0 0.0
2017-Oct-05 10:59N 38°41' W 009°14'0 0.0
2017-Oct-05 10:29N 38°41' W 009°14'0 0.0
2017-Oct-05 09:59N 38°41' W 009°14'0 0.0
2017-Oct-05 09:29N 38°41' W 009°14'0 0.0
2017-Oct-05 08:59N 38°41' W 009°14'0 0.0
2017-Oct-05 08:29N 38°41' W 009°14'0 0.0
2017-Oct-05 07:56N 38°41' W 009°14'0 0.0
2017-Oct-05 07:29N 38°41' W 009°14'0 0.0
2017-Oct-05 06:59N 38°41' W 009°14'0 0.0
2017-Oct-05 06:29N 38°41' W 009°14'0 0.0
2017-Oct-05 05:59N 38°41' W 009°14'0 0.0
2017-Oct-05 05:29N 38°41' W 009°14'0 0.0
2017-Oct-05 04:59N 38°41' W 009°14'0 0.0
2017-Oct-05 04:29N 38°41' W 009°14'0 0.0
2017-Oct-05 03:59N 38°41' W 009°14'0 0.0
2017-Oct-05 03:26N 38°41' W 009°14'0 0.0
2017-Oct-05 02:59N 38°41' W 009°14'0 0.0
2017-Oct-05 02:29N 38°41' W 009°14'0 0.0
2017-Oct-05 01:59N 38°41' W 009°14'0 0.0
2017-Oct-05 01:29N 38°41' W 009°14'0 0.0
2017-Oct-05 00:59N 38°41' W 009°14'0 0.0
2017-Oct-05 00:29N 38°41' W 009°14'0 0.0
2017-Oct-04 23:59N 38°41' W 009°14'0 0.0
2017-Oct-04 23:26N 38°41' W 009°14'0 0.0
2017-Oct-04 22:59N 38°41' W 009°14'0 0.0
2017-Oct-04 22:29N 38°41' W 009°14'0 0.0
2017-Oct-04 21:59N 38°41' W 009°14'0 0.0
2017-Oct-04 21:29N 38°41' W 009°14'0 0.0
2017-Oct-04 20:59N 38°41' W 009°14'0 0.0
2017-Oct-04 20:29N 38°41' W 009°14'0 0.0
2017-Oct-04 19:59N 38°41' W 009°14'  
Track history (hours):
 
Tides and Currents Weather Stations Pressure Air Temp Water Temp Dewpoint Dewpoint Depression Visibility Wind Speed Wind Dir Waves Ship Positions

Ionic Kleos

Last reported at 2017-Oct-14 19:48 UTC. Time now 2017-Oct-23 02:39 UTC.
Position N 37°14' W 027°14'.
Warning: this ship's position is 8 days out of date.

Length 229 m; draft 6.8 m.

Type: Cargo ship. MMSI: 538005444.

Date/timePositionNaut miles runAvg speedWind from/ knotsBaromVisibWave heightAir tempDewpointWater temp
2017-Oct-14 19:48N 37°14' W 027°14'411.9
2017-Oct-14 19:30N 37°15' W 027°09'611.2
2017-Oct-14 19:00N 37°17' W 027°03'510.8
2017-Oct-14 18:30N 37°18' W 026°56'510.2
2017-Oct-14 18:00N 37°20' W 026°50'5 9.6
2017-Oct-14 17:30N 37°21' W 026°44'510.8
2017-Oct-14 17:00N 37°22' W 026°38'510.9
2017-Oct-14 16:30N 37°23' W 026°31'611.6
2017-Oct-14 16:00N 37°24' W 026°23'510.2
2017-Oct-14 15:30N 37°24' W 026°17'510.0
2017-Oct-14 15:00N 37°24' W 026°11'510.0
2017-Oct-14 14:30N 37°24' W 026°05'510.2
2017-Oct-14 14:00N 37°25' W 025°58'5 9.3
2017-Oct-14 13:31N 37°27' W 025°53'5 9.5
2017-Oct-14 13:00N 37°29' W 025°47'510.6
2017-Oct-14 12:30N 37°31' W 025°41'510.5
2017-Oct-14 12:01N 37°31' W 025°34'611.2
2017-Oct-14 11:30N 37°30' W 025°27'611.7
2017-Oct-14 11:01N 37°29' W 025°20'611.6
2017-Oct-14 10:30N 37°29' W 025°13'611.5
2017-Oct-14 10:00N 37°30' W 025°06'612.1
2017-Oct-14 09:30N 37°30' W 024°58'611.5
2017-Oct-14 09:00N 37°31' W 024°51'611.3
2017-Oct-14 08:30N 37°31' W 024°44'611.1
2017-Oct-14 08:00N 37°32' W 024°37'611.2
2017-Oct-14 07:30N 37°32' W 024°30'611.7
2017-Oct-14 07:00N 37°33' W 024°22'612.0
2017-Oct-14 06:30N 37°33' W 024°15'611.8
2017-Oct-14 06:00N 37°34' W 024°07'611.6
2017-Oct-14 05:30N 37°35' W 024°00'612.0
2017-Oct-14 05:00N 37°35' W 023°53'612.1
2017-Oct-14 04:30N 37°36' W 023°45'612.0
2017-Oct-14 04:00N 37°36' W 023°38'912.3
2017-Oct-14 03:18N 37°37' W 023°27'1612.5
2017-Oct-14 01:59N 37°38' W 023°06'55112.4
2017-Oct-12 05:38N 38°30' W 011°29'713.5
2017-Oct-12 05:07N 38°31' W 011°21'213.4
2017-Oct-12 05:00N 38°31' W 011°19'713.7
2017-Oct-12 04:30N 38°31' W 011°10'714.0
2017-Oct-12 04:00N 38°31' W 011°01'714.2
2017-Oct-12 03:30N 38°31' W 010°52'714.6
2017-Oct-12 03:00N 38°32' W 010°43'714.7
2017-Oct-12 02:30N 38°32' W 010°33'714.6
2017-Oct-12 02:00N 38°33' W 010°24'714.0
2017-Oct-12 01:30N 38°33' W 010°15'714.1
2017-Oct-12 01:00N 38°34' W 010°06'714.3
2017-Oct-12 00:30N 38°34' W 009°57'714.1
2017-Oct-12 00:00N 38°35' W 009°48'714.5
2017-Oct-11 23:30N 38°35' W 009°39'713.3
2017-Oct-11 23:00N 38°36' W 009°30'5 9.7
2017-Oct-11 22:30N 38°36' W 009°24'4 8.3
2017-Oct-11 22:00N 38°39' W 009°20'510.5
2017-Oct-11 21:30N 38°41' W 009°14'0 0.3
2017-Oct-11 21:00N 38°41' W 009°14'0 0.0
2017-Oct-11 20:09N 38°41' W 009°14'0 0.0
2017-Oct-11 19:48N 38°41' W 009°14'0 0.0
2017-Oct-11 19:30N 38°41' W 009°14'0 0.0
2017-Oct-11 18:59N 38°41' W 009°14'0 0.0
2017-Oct-11 18:27N 38°41' W 009°14'0 0.0
2017-Oct-11 17:56N 38°41' W 009°14'0 0.0
2017-Oct-11 17:30N 38°41' W 009°14'0 0.0
2017-Oct-11 16:54N 38°41' W 009°14'0 0.0
2017-Oct-10 23:56N 38°41' W 009°14'0 0.0
2017-Oct-10 23:29N 38°41' W 009°14'0 0.0
2017-Oct-10 22:53N 38°41' W 009°14'0 0.0
2017-Oct-10 22:29N 38°41' W 009°14'0 0.0
2017-Oct-10 21:59N 38°41' W 009°14'0 0.0
2017-Oct-10 21:29N 38°41' W 009°14'0 0.0
2017-Oct-10 20:59N 38°41' W 009°14'0 0.0
2017-Oct-10 20:29N 38°41' W 009°14'0 0.0
2017-Oct-10 19:59N 38°41' W 009°14'0 0.0
2017-Oct-10 19:29N 38°41' W 009°14'0 0.0
2017-Oct-10 18:59N 38°41' W 009°14'0 0.0
2017-Oct-10 18:20N 38°41' W 009°14'0 0.0
2017-Oct-10 17:59N 38°41' W 009°14'0 0.0
2017-Oct-10 17:27N 38°41' W 009°14'0 0.0
2017-Oct-10 16:59N 38°41' W 009°14'0 0.0
2017-Oct-10 15:32N 38°41' W 009°14'0 0.0
2017-Oct-10 15:20N 38°41' W 009°14'0 0.0
2017-Oct-10 14:59N 38°41' W 009°14'0 0.0
2017-Oct-10 13:59N 38°41' W 009°14'0 0.0
2017-Oct-10 13:11N 38°41' W 009°14'0 0.0
2017-Oct-10 12:53N 38°41' W 009°14'0 0.0
2017-Oct-10 12:20N 38°41' W 009°14'0 0.0
2017-Oct-10 11:59N 38°41' W 009°14'0 0.0
2017-Oct-10 11:20N 38°41' W 009°14'0 0.0
2017-Oct-10 10:59N 38°41' W 009°14'0 0.0
2017-Oct-10 10:26N 38°41' W 009°14'0 0.0
2017-Oct-10 09:59N 38°41' W 009°14'0 0.0
2017-Oct-10 09:23N 38°41' W 009°14'0 0.0
2017-Oct-10 08:59N 38°41' W 009°14'0 0.0
2017-Oct-10 08:23N 38°41' W 009°14'0 0.0
2017-Oct-10 07:59N 38°41' W 009°14'0 0.0
2017-Oct-10 07:29N 38°41' W 009°14'0 0.0
2017-Oct-10 06:53N 38°41' W 009°14'0 0.0
2017-Oct-10 06:29N 38°41' W 009°14'0 0.0
2017-Oct-10 05:59N 38°41' W 009°14'0 0.0
2017-Oct-10 05:29N 38°41' W 009°14'0 0.0
2017-Oct-10 04:59N 38°41' W 009°14'0 0.0
2017-Oct-10 04:23N 38°41' W 009°14'0 0.0
2017-Oct-10 03:59N 38°41' W 009°14'0 0.0
2017-Oct-10 03:29N 38°41' W 009°14'0 0.0
2017-Oct-10 02:59N 38°41' W 009°14'0 0.0
2017-Oct-10 02:29N 38°41' W 009°14'0 0.0
2017-Oct-10 01:53N 38°41' W 009°14'0 0.0
2017-Oct-10 01:29N 38°41' W 009°14'0 0.0
2017-Oct-10 00:59N 38°41' W 009°14'0 0.0
2017-Oct-10 00:29N 38°41' W 009°14'0 0.0
2017-Oct-09 23:59N 38°41' W 009°14'0 0.0
2017-Oct-09 23:29N 38°41' W 009°14'0 0.0
2017-Oct-09 22:59N 38°41' W 009°14'0 0.0
2017-Oct-09 22:29N 38°41' W 009°14'0 0.0
2017-Oct-09 21:53N 38°41' W 009°14'0 0.0
2017-Oct-09 21:29N 38°41' W 009°14'0 0.0
2017-Oct-09 20:59N 38°41' W 009°14'0 0.0
2017-Oct-09 20:29N 38°41' W 009°14'0 0.0
2017-Oct-09 19:59N 38°41' W 009°14'0 0.0
2017-Oct-09 19:29N 38°41' W 009°14'0 0.0
2017-Oct-09 18:59N 38°41' W 009°14'0 0.0
2017-Oct-09 18:29N 38°41' W 009°14'0 0.0
2017-Oct-09 17:59N 38°41' W 009°14'0 0.0
2017-Oct-09 17:29N 38°41' W 009°14'0 0.0
2017-Oct-09 16:59N 38°41' W 009°14'0 0.0
2017-Oct-09 16:29N 38°41' W 009°14'0 0.0
2017-Oct-09 15:56N 38°41' W 009°14'0 0.0
2017-Oct-09 15:29N 38°41' W 009°14'0 0.0
2017-Oct-09 14:59N 38°41' W 009°14'0 0.0
2017-Oct-09 14:29N 38°41' W 009°14'0 0.0
2017-Oct-09 13:59N 38°41' W 009°14'0 0.0
2017-Oct-09 13:29N 38°41' W 009°14'0 0.0
2017-Oct-09 12:59N 38°41' W 009°14'0 0.0
2017-Oct-09 12:29N 38°41' W 009°14'0 0.0
2017-Oct-09 11:59N 38°41' W 009°14'0 0.0
2017-Oct-09 11:29N 38°41' W 009°14'0 0.0
2017-Oct-09 10:59N 38°41' W 009°14'0 0.0
2017-Oct-09 10:29N 38°41' W 009°14'0 0.0
2017-Oct-09 09:50N 38°41' W 009°14'0 0.0
2017-Oct-09 09:29N 38°41' W 009°14'0 0.0
2017-Oct-09 08:56N 38°41' W 009°14'0 0.0
2017-Oct-09 08:29N 38°41' W 009°14'0 0.0
2017-Oct-09 07:59N 38°41' W 009°14'0 0.0
2017-Oct-09 07:29N 38°41' W 009°14'0 0.0
2017-Oct-09 06:59N 38°41' W 009°14'0 0.0
2017-Oct-09 06:29N 38°41' W 009°14'0 0.0
2017-Oct-09 05:59N 38°41' W 009°14'0 0.0
2017-Oct-09 05:26N 38°41' W 009°14'0 0.0
2017-Oct-09 04:59N 38°41' W 009°14'0 0.0
2017-Oct-09 04:29N 38°41' W 009°14'0 0.0
2017-Oct-09 03:59N 38°41' W 009°14'0 0.0
2017-Oct-09 03:29N 38°41' W 009°14'0 0.0
2017-Oct-09 02:59N 38°41' W 009°14'0 0.0
2017-Oct-09 02:29N 38°41' W 009°14'0 0.0
2017-Oct-09 01:59N 38°41' W 009°14'0 0.0
2017-Oct-09 01:29N 38°41' W 009°14'0 0.0
2017-Oct-09 00:59N 38°41' W 009°14'0 0.0
2017-Oct-09 00:29N 38°41' W 009°14'0 0.0
2017-Oct-08 23:59N 38°41' W 009°14'0 0.0
2017-Oct-08 23:29N 38°41' W 009°14'0 0.0
2017-Oct-08 22:59N 38°41' W 009°14'0 0.0
2017-Oct-08 22:29N 38°41' W 009°14'0 0.0
2017-Oct-08 21:59N 38°41' W 009°14'0 0.0
2017-Oct-08 21:29N 38°41' W 009°14'0 0.0
2017-Oct-08 20:59N 38°41' W 009°14'0 0.0
2017-Oct-08 20:29N 38°41' W 009°14'0 0.0
2017-Oct-08 19:59N 38°41' W 009°14'0 0.0
2017-Oct-08 19:29N 38°41' W 009°14'0 0.0
2017-Oct-08 18:59N 38°41' W 009°14'0 0.0
2017-Oct-08 18:17N 38°41' W 009°14'0 0.0
2017-Oct-08 17:59N 38°41' W 009°14'0 0.0
2017-Oct-08 17:29N 38°41' W 009°14'0 0.0
2017-Oct-08 16:59N 38°41' W 009°14'0 0.0
2017-Oct-08 16:30N 38°41' W 009°14'0 0.0
2017-Oct-08 15:59N 38°41' W 009°14'0 0.0
2017-Oct-08 15:29N 38°41' W 009°14'0 0.0
2017-Oct-08 14:59N 38°41' W 009°14'0 0.0
2017-Oct-08 14:29N 38°41' W 009°14'0 0.0
2017-Oct-08 13:59N 38°41' W 009°14'0 0.0
2017-Oct-08 13:23N 38°41' W 009°14'0 0.0
2017-Oct-08 12:59N 38°41' W 009°14'0 0.0
2017-Oct-08 12:29N 38°41' W 009°14'0 0.0
2017-Oct-08 11:59N 38°41' W 009°14'0 0.0
2017-Oct-08 11:29N 38°41' W 009°14'0 0.0
2017-Oct-08 10:59N 38°41' W 009°14'0 0.0
2017-Oct-08 10:26N 38°41' W 009°14'0 0.0
2017-Oct-08 09:59N 38°41' W 009°14'0 0.0
2017-Oct-08 09:29N 38°41' W 009°14'0 0.0
2017-Oct-08 08:59N 38°41' W 009°14'0 0.0
2017-Oct-08 08:23N 38°41' W 009°14'0 0.0
2017-Oct-08 07:56N 38°41' W 009°14'0 0.0
2017-Oct-08 07:29N 38°41' W 009°14'0 0.0
2017-Oct-08 06:56N 38°41' W 009°14'0 0.0
2017-Oct-08 06:29N 38°41' W 009°14'0 0.0
2017-Oct-08 05:53N 38°41' W 009°14'0 0.0
2017-Oct-08 05:29N 38°41' W 009°14'0 0.0
2017-Oct-08 04:53N 38°41' W 009°14'0 0.0
2017-Oct-08 04:29N 38°41' W 009°14'0 0.0
2017-Oct-08 03:59N 38°41' W 009°14'0 0.0
2017-Oct-08 03:29N 38°41' W 009°14'0 0.0
2017-Oct-08 02:59N 38°41' W 009°14'0 0.0
2017-Oct-08 02:29N 38°41' W 009°14'0 0.0
2017-Oct-08 01:59N 38°41' W 009°14'0 0.0
2017-Oct-08 01:23N 38°41' W 009°14'0 0.0
2017-Oct-08 00:59N 38°41' W 009°14'0 0.0
2017-Oct-08 00:29N 38°41' W 009°14'0 0.0
2017-Oct-07 23:53N 38°41' W 009°14'0 0.0
2017-Oct-07 23:29N 38°41' W 009°14'0 0.0
2017-Oct-07 22:59N 38°41' W 009°14'0 0.0
2017-Oct-07 22:17N 38°41' W 009°14'0 0.0
2017-Oct-07 21:56N 38°41' W 009°14'0 0.0
2017-Oct-07 21:29N 38°41' W 009°14'0 0.0
2017-Oct-07 20:59N 38°41' W 009°14'0 0.0
2017-Oct-07 20:29N 38°41' W 009°14'0 0.0
2017-Oct-07 19:56N 38°41' W 009°14'0 0.0
2017-Oct-07 19:17N 38°41' W 009°14'0 0.0
2017-Oct-07 18:53N 38°41' W 009°14'0 0.0
2017-Oct-07 18:29N 38°41' W 009°14'0 0.0
2017-Oct-07 17:59N 38°41' W 009°14'0 0.0
2017-Oct-07 17:23N 38°41' W 009°14'0 0.0
2017-Oct-07 16:59N 38°41' W 009°14'0 0.0
2017-Oct-07 16:29N 38°41' W 009°14'0 0.0
2017-Oct-07 15:53N 38°41' W 009°14'0 0.0
2017-Oct-07 14:38N 38°41' W 009°14'0 0.0
2017-Oct-07 14:29N 38°41' W 009°14'0 0.0
2017-Oct-07 13:59N 38°41' W 009°14'0 0.0
2017-Oct-07 13:29N 38°41' W 009°14'0 0.0
2017-Oct-07 12:59N 38°41' W 009°14'0 0.0
2017-Oct-07 12:29N 38°41' W 009°14'0 0.0
2017-Oct-07 11:59N 38°41' W 009°14'0 0.0
2017-Oct-07 11:17N 38°41' W 009°14'0 0.0
2017-Oct-07 10:59N 38°41' W 009°14'0 0.0
2017-Oct-07 10:29N 38°41' W 009°14'0 0.0
2017-Oct-07 09:59N 38°41' W 009°14'0 0.0
2017-Oct-07 09:23N 38°41' W 009°14'0 0.0
2017-Oct-07 08:59N 38°41' W 009°14'0 0.0
2017-Oct-07 08:29N 38°41' W 009°14'0 0.0
2017-Oct-07 07:59N 38°41' W 009°14'0 0.0
2017-Oct-07 07:29N 38°41' W 009°14'0 0.0
2017-Oct-07 06:59N 38°41' W 009°14'0 0.0
2017-Oct-07 06:26N 38°41' W 009°14'0 0.0
2017-Oct-07 05:59N 38°41' W 009°14'0 0.0
2017-Oct-07 05:29N 38°41' W 009°14'0 0.0
2017-Oct-07 04:59N 38°41' W 009°14'0 0.0
2017-Oct-07 04:23N 38°41' W 009°14'0 0.0
2017-Oct-07 03:59N 38°41' W 009°14'0 0.0
2017-Oct-07 03:29N 38°41' W 009°14'0 0.0
2017-Oct-07 02:59N 38°41' W 009°14'0 0.0
2017-Oct-07 02:29N 38°41' W 009°14'0 0.0
2017-Oct-07 01:53N 38°41' W 009°14'0 0.0
2017-Oct-07 01:26N 38°41' W 009°14'0 0.0
2017-Oct-07 00:59N 38°41' W 009°14'0 0.0
2017-Oct-07 00:11N 38°41' W 009°14'0 0.0
2017-Oct-06 23:59N 38°41' W 009°14'0 0.0
2017-Oct-06 23:23N 38°41' W 009°14'0 0.0
2017-Oct-06 22:59N 38°41' W 009°14'0 0.0
2017-Oct-06 22:29N 38°41' W 009°14'0 0.0
2017-Oct-06 21:59N 38°41' W 009°14'0 0.0
2017-Oct-06 21:29N 38°41' W 009°14'0 0.0
2017-Oct-06 20:59N 38°41' W 009°14'0 0.0
2017-Oct-06 20:29N 38°41' W 009°14'0 0.0
2017-Oct-06 19:59N 38°41' W 009°14'0 0.0
2017-Oct-06 19:29N 38°41' W 009°14'0 0.0
2017-Oct-06 18:59N 38°41' W 009°14'0 0.0
2017-Oct-06 18:29N 38°41' W 009°14'0 0.0
2017-Oct-06 17:59N 38°41' W 009°14'0 0.0
2017-Oct-06 17:29N 38°41' W 009°14'0 0.0
2017-Oct-06 16:56N 38°41' W 009°14'0 0.0
2017-Oct-06 16:26N 38°41' W 009°14'0 0.0
2017-Oct-06 15:59N 38°41' W 009°14'0 0.0
2017-Oct-06 15:29N 38°41' W 009°14'0 0.0
2017-Oct-06 14:50N 38°41' W 009°14'0 0.0
2017-Oct-06 14:29N 38°41' W 009°14'0 0.0
2017-Oct-06 13:59N 38°41' W 009°14'0 0.0
2017-Oct-06 13:29N 38°41' W 009°14'0 0.0
2017-Oct-06 12:59N 38°41' W 009°14'0 0.0
2017-Oct-06 12:29N 38°41' W 009°14'0 0.0
2017-Oct-06 11:53N 38°41' W 009°14'0 0.0
2017-Oct-06 11:29N 38°41' W 009°14'0 0.0
2017-Oct-06 10:59N 38°41' W 009°14'0 0.0
2017-Oct-06 10:29N 38°41' W 009°14'0 0.0
2017-Oct-06 09:56N 38°41' W 009°14'0 0.0
2017-Oct-06 09:29N 38°41' W 009°14'0 0.0
2017-Oct-06 08:59N 38°41' W 009°14'0 0.0
2017-Oct-06 08:29N 38°41' W 009°14'0 0.0
2017-Oct-06 07:59N 38°41' W 009°14'0 0.0
2017-Oct-06 07:29N 38°41' W 009°14'0 0.0
2017-Oct-06 06:59N 38°41' W 009°14'0 0.0
2017-Oct-06 06:29N 38°41' W 009°14'0 0.0
2017-Oct-06 05:59N 38°41' W 009°14'0 0.0
2017-Oct-06 05:26N 38°41' W 009°14'0 0.0
2017-Oct-06 04:59N 38°41' W 009°14'0 0.0
2017-Oct-06 04:29N 38°41' W 009°14'0 0.0
2017-Oct-06 03:59N 38°41' W 009°14'0 0.0
2017-Oct-06 03:29N 38°41' W 009°14'0 0.0
2017-Oct-06 02:59N 38°41' W 009°14'0 0.0
2017-Oct-06 02:29N 38°41' W 009°14'0 0.0
2017-Oct-06 01:59N 38°41' W 009°14'0 0.0
2017-Oct-06 01:29N 38°41' W 009°14'0 0.0
2017-Oct-06 00:59N 38°41' W 009°14'0 0.0
2017-Oct-06 00:29N 38°41' W 009°14'0 0.0
2017-Oct-05 23:59N 38°41' W 009°14'0 0.0
2017-Oct-05 23:29N 38°41' W 009°14'0 0.0
2017-Oct-05 22:59N 38°41' W 009°14'0 0.0
2017-Oct-05 22:26N 38°41' W 009°14'0 0.0
2017-Oct-05 21:59N 38°41' W 009°14'0 0.0
2017-Oct-05 21:29N 38°41' W 009°14'0 0.0
2017-Oct-05 20:59N 38°41' W 009°14'0 0.0
2017-Oct-05 20:29N 38°41' W 009°14'0 0.0
2017-Oct-05 19:53N 38°41' W 009°14'0 0.0
2017-Oct-05 19:29N 38°41' W 009°14'0 0.0
2017-Oct-05 18:59N 38°41' W 009°14'0 0.0
2017-Oct-05 18:29N 38°41' W 009°14'0 0.0
2017-Oct-05 17:53N 38°41' W 009°14'0 0.0
2017-Oct-05 17:29N 38°41' W 009°14'0 0.0
2017-Oct-05 16:59N 38°41' W 009°14'0 0.0
2017-Oct-05 15:29N 38°41' W 009°14'0 0.0
2017-Oct-05 14:59N 38°41' W 009°14'0 0.0
2017-Oct-05 14:29N 38°41' W 009°14'0 0.0
2017-Oct-05 13:59N 38°41' W 009°14'0 0.0
2017-Oct-05 13:29N 38°41' W 009°14'0 0.0
2017-Oct-05 12:53N 38°41' W 009°14'0 0.0
2017-Oct-05 12:29N 38°41' W 009°14'0 0.0
2017-Oct-05 11:59N 38°41' W 009°14'0 0.0
2017-Oct-05 11:29N 38°41' W 009°14'0 0.0
2017-Oct-05 10:59N 38°41' W 009°14'0 0.0
2017-Oct-05 10:29N 38°41' W 009°14'0 0.0
2017-Oct-05 09:59N 38°41' W 009°14'0 0.0
2017-Oct-05 09:29N 38°41' W 009°14'0 0.0
2017-Oct-05 08:59N 38°41' W 009°14'0 0.0
2017-Oct-05 08:29N 38°41' W 009°14'0 0.0
2017-Oct-05 07:56N 38°41' W 009°14'0 0.0
2017-Oct-05 07:29N 38°41' W 009°14'0 0.0
2017-Oct-05 06:59N 38°41' W 009°14'0 0.0
2017-Oct-05 06:29N 38°41' W 009°14'0 0.0
2017-Oct-05 05:59N 38°41' W 009°14'0 0.0
2017-Oct-05 05:29N 38°41' W 009°14'0 0.0
2017-Oct-05 04:59N 38°41' W 009°14'0 0.0
2017-Oct-05 04:29N 38°41' W 009°14'0 0.0
2017-Oct-05 03:59N 38°41' W 009°14'0 0.0
2017-Oct-05 03:26N 38°41' W 009°14'0 0.0
2017-Oct-05 02:59N 38°41' W 009°14'0 0.0
2017-Oct-05 02:29N 38°41' W 009°14'0 0.0
2017-Oct-05 01:59N 38°41' W 009°14'0 0.0
2017-Oct-05 01:29N 38°41' W 009°14'0 0.0
2017-Oct-05 00:59N 38°41' W 009°14'0 0.0
2017-Oct-05 00:29N 38°41' W 009°14'0 0.0
2017-Oct-04 23:59N 38°41' W 009°14'0 0.0
2017-Oct-04 23:26N 38°41' W 009°14'0 0.0
2017-Oct-04 22:59N 38°41' W 009°14'0 0.0
2017-Oct-04 22:29N 38°41' W 009°14'0 0.0
2017-Oct-04 21:59N 38°41' W 009°14'0 0.0
2017-Oct-04 21:29N 38°41' W 009°14'0 0.0
2017-Oct-04 20:59N 38°41' W 009°14'0 0.0
2017-Oct-04 20:29N 38°41' W 009°14'0 0.0
2017-Oct-04 19:59N 38°41' W 009°14'  

Dump ship's entire track history